Time;durP1;ratioP1;P1;durP2;ratioP2;P2;SDS_P1;SDS_P2;PMS_P1;PMS_P2;Temp;Humidity;BMP_temperature;BMP_pressure;BME280_temperature;BME280_humidity;BME280_pressure;Samples;Min_cycle;Max_cycle;Signal;HPM_P1;HPM_P2
2020/12/29 00:00:20;;;;;;;10.98;2.58;;;13.90;99.90;;;;;;4105501;34;20438;-86
2020/12/29 00:02:50;;;;;;;9.10;1.70;;;13.90;99.90;;;;;;4107033;34;20504;-86
2020/12/29 00:05:18;;;;;;;9.52;1.60;;;13.80;99.90;;;;;;4103036;34;20054;-87
2020/12/29 00:07:53;;;;;;;7.30;1.85;;;13.70;99.90;;;;;;4111633;34;20152;-86
2020/12/29 00:10:24;;;;;;;13.77;1.98;;;13.70;99.90;;;;;;4115999;34;20573;-86
2020/12/29 00:12:52;;;;;;;8.50;1.30;;;13.70;99.90;;;;;;4112104;34;20122;-87
2020/12/29 00:15:20;;;;;;;11.52;2.20;;;13.70;99.90;;;;;;4106790;34;20132;-87
2020/12/29 00:17:48;;;;;;;10.70;1.55;;;13.70;99.90;;;;;;4094812;34;20125;-86
2020/12/29 00:20:16;;;;;;;10.23;1.50;;;13.70;99.90;;;;;;4094126;34;20070;-86
2020/12/29 00:22:44;;;;;;;7.10;1.67;;;13.80;99.90;;;;;;4109437;34;20140;-86
2020/12/29 00:25:16;;;;;;;8.35;1.40;;;13.80;99.90;;;;;;4103558;34;20192;-86
2020/12/29 00:27:47;;;;;;;8.20;1.85;;;13.90;99.90;;;;;;4111360;34;20069;-87
2020/12/29 00:30:15;;;;;;;5.62;2.08;;;13.80;99.90;;;;;;4091568;34;20092;-86
2020/12/29 00:32:44;;;;;;;7.47;2.37;;;13.80;99.90;;;;;;4105575;34;20108;-86
2020/12/29 00:35:12;;;;;;;2.90;1.23;;;13.80;99.90;;;;;;4103564;34;20199;-87
2020/12/29 00:37:40;;;;;;;7.60;2.22;;;13.80;99.90;;;;;;4104900;34;20077;-87
2020/12/29 00:40:08;;;;;;;11.40;2.05;;;13.80;99.90;;;;;;4102863;34;20523;-86
2020/12/29 00:42:36;;;;;;;4.85;1.37;;;13.80;99.90;;;;;;4091298;34;20155;-86
2020/12/29 00:45:04;;;;;;;10.15;2.00;;;13.90;99.90;;;;;;4100870;34;20061;-87
2020/12/29 00:47:32;;;;;;;6.47;1.45;;;13.90;99.90;;;;;;4102033;34;20113;-87
2020/12/29 00:50:00;;;;;;;12.15;1.48;;;13.90;99.90;;;;;;4110348;34;20351;-87
2020/12/29 00:52:28;;;;;;;10.93;2.08;;;13.90;99.90;;;;;;4103834;34;20064;-86
2020/12/29 00:54:56;;;;;;;15.75;2.33;;;13.90;99.90;;;;;;4103890;34;20120;-86
2020/12/29 00:57:25;;;;;;;10.15;2.00;;;13.90;99.90;;;;;;4106305;34;20522;-87
2020/12/29 00:59:54;;;;;;;9.02;1.45;;;13.90;99.90;;;;;;4109611;34;20182;-87
2020/12/29 01:02:22;;;;;;;6.35;1.70;;;13.90;99.90;;;;;;4107042;34;20310;-87
2020/12/29 01:04:55;;;;;;;9.05;1.42;;;13.80;99.90;;;;;;4079437;34;20101;-86
2020/12/29 01:07:24;;;;;;;9.90;1.45;;;13.80;99.90;;;;;;4090170;34;20186;-87
2020/12/29 01:09:52;;;;;;;4.85;1.85;;;13.70;99.90;;;;;;4101348;34;20781;-87
2020/12/29 01:12:20;;;;;;;4.30;0.93;;;13.70;99.90;;;;;;4089360;34;20095;-86
2020/12/29 01:14:48;;;;;;;7.45;1.23;;;13.60;99.90;;;;;;4101374;34;20085;-86
2020/12/29 01:17:16;;;;;;;4.87;1.52;;;13.60;99.90;;;;;;4105039;34;20161;-87
2020/12/29 01:19:44;;;;;;;6.97;1.67;;;13.60;99.90;;;;;;4093227;34;20109;-87
2020/12/29 01:22:13;;;;;;;7.50;1.42;;;13.50;99.90;;;;;;4099641;34;20155;-87
2020/12/29 01:24:42;;;;;;;10.05;1.62;;;13.60;99.90;;;;;;4104509;34;20074;-86
2020/12/29 01:27:09;;;;;;;10.13;2.25;;;13.60;99.90;;;;;;4108222;34;20437;-87
2020/12/29 01:29:38;;;;;;;8.55;2.05;;;13.60;99.90;;;;;;4104158;34;20493;-87
2020/12/29 01:32:07;;;;;;;9.57;2.28;;;13.50;99.90;;;;;;4102114;34;20474;-86
2020/12/29 01:34:35;;;;;;;18.45;2.05;;;13.50;99.90;;;;;;4106693;34;20382;-87
2020/12/29 01:37:03;;;;;;;11.43;2.12;;;13.50;99.90;;;;;;4100299;34;20178;-86
2020/12/29 01:39:31;;;;;;;8.13;2.75;;;13.30;99.90;;;;;;4104240;34;20167;-87
2020/12/29 01:41:59;;;;;;;12.60;1.83;;;13.20;99.90;;;;;;4102718;34;20809;-87
2020/12/29 01:44:27;;;;;;;11.50;1.65;;;;;;;;;;4103342;34;20152;-86
2020/12/29 01:46:55;;;;;;;17.27;3.00;;;12.80;99.90;;;;;;4089355;34;20136;-86
2020/12/29 01:49:23;;;;;;;19.65;2.25;;;12.70;99.90;;;;;;4111836;34;20112;-86
2020/12/29 01:51:51;;;;;;;5.40;1.70;;;12.70;99.90;;;;;;4113792;34;20450;-86
2020/12/29 01:54:19;;;;;;;9.88;1.65;;;12.70;99.90;;;;;;4102742;34;20069;-86
2020/12/29 01:56:47;;;;;;;8.07;2.15;;;12.70;99.90;;;;;;4101137;34;20072;-87
2020/12/29 01:59:15;;;;;;;17.95;2.45;;;12.70;99.90;;;;;;4108389;34;20390;-86
2020/12/29 02:01:44;;;;;;;11.77;2.15;;;12.60;99.90;;;;;;4107792;34;20107;-86
2020/12/29 02:04:13;;;;;;;6.68;1.77;;;12.60;99.90;;;;;;4106876;34;20093;-86
2020/12/29 02:06:42;;;;;;;15.20;2.20;;;12.60;99.90;;;;;;4105541;34;20080;-86
2020/12/29 02:09:11;;;;;;;10.10;1.87;;;12.60;99.90;;;;;;4111025;34;20095;-86
2020/12/29 02:11:41;;;;;;;13.45;1.83;;;12.50;99.90;;;;;;4115661;34;20501;-86
2020/12/29 02:14:09;;;;;;;10.40;1.67;;;12.30;99.90;;;;;;4092544;34;20360;-87
2020/12/29 02:16:41;;;;;;;14.30;2.53;;;12.30;99.90;;;;;;4109437;34;20493;-87
2020/12/29 02:19:10;;;;;;;11.35;2.00;;;12.50;99.90;;;;;;4109146;34;20081;-86
2020/12/29 02:21:38;;;;;;;10.40;2.35;;;12.60;99.90;;;;;;4120883;34;20624;-86
2020/12/29 02:24:07;;;;;;;7.10;2.33;;;12.60;99.90;;;;;;4107387;34;20086;-87
2020/12/29 02:26:35;;;;;;;12.13;2.08;;;12.40;99.90;;;;;;4119682;34;20637;-86
2020/12/29 02:29:05;;;;;;;9.80;2.20;;;12.40;99.90;;;;;;4115972;34;20299;-86
2020/12/29 02:31:33;;;;;;;14.32;2.12;;;12.50;99.90;;;;;;4107099;34;20120;-86
2020/12/29 02:34:02;;;;;;;15.45;2.10;;;12.40;99.90;;;;;;4105109;34;20202;-86
2020/12/29 02:36:30;;;;;;;4.43;1.20;;;12.60;99.90;;;;;;4107084;34;20497;-87
2020/12/29 02:38:57;;;;;;;13.62;2.50;;;12.60;99.90;;;;;;4106187;34;20473;-86
2020/12/29 02:41:26;;;;;;;8.93;2.45;;;12.60;99.90;;;;;;4102253;34;20117;-86
2020/12/29 02:43:54;;;;;;;13.93;2.78;;;12.50;99.90;;;;;;4104343;34;20160;-87
2020/12/29 02:46:21;;;;;;;13.05;1.85;;;12.50;99.90;;;;;;4106695;34;20446;-87
2020/12/29 02:48:50;;;;;;;12.77;2.30;;;12.40;99.90;;;;;;4107989;34;20084;-87
2020/12/29 02:51:18;;;;;;;18.15;2.50;;;12.50;99.90;;;;;;4102212;34;20133;-87
2020/12/29 02:53:46;;;;;;;11.52;2.30;;;12.60;99.90;;;;;;4103257;34;20160;-87
2020/12/29 02:56:20;;;;;;;14.38;2.08;;;12.70;99.90;;;;;;4105898;34;20386;-86
2020/12/29 02:58:48;;;;;;;5.87;1.90;;;12.70;99.90;;;;;;4110427;34;20151;-86
2020/12/29 03:01:16;;;;;;;13.15;3.03;;;12.80;99.90;;;;;;4105612;34;20128;-87
2020/12/29 03:03:44;;;;;;;4.97;1.60;;;12.90;99.90;;;;;;4105094;34;20194;-86
2020/12/29 03:06:12;;;;;;;7.20;2.08;;;13.00;99.90;;;;;;4105494;34;20097;-87
2020/12/29 03:08:40;;;;;;;14.20;1.70;;;13.00;99.90;;;;;;4117738;34;20109;-87
2020/12/29 03:14:35;;;;;;;10.40;2.08;;;13.10;99.90;;;;;;4132193;29;20466;-86
2020/12/29 03:17:03;;;;;;;16.67;2.03;;;13.20;99.90;;;;;;4125723;34;20134;-85
2020/12/29 03:19:31;;;;;;;25.55;2.95;;;13.30;99.90;;;;;;4131911;34;20120;-89
2020/12/29 03:25:25;;;;;;;10.60;2.20;;;13.00;99.90;;;;;;4245689;29;20682;-87
2020/12/29 03:27:53;;;;;;;19.37;3.03;;;12.80;99.90;;;;;;4132948;34;20492;-88
2020/12/29 03:30:21;;;;;;;16.98;2.37;;;12.60;99.90;;;;;;4130777;34;20125;-88
2020/12/29 03:32:49;;;;;;;16.08;2.45;;;12.70;99.90;;;;;;4133801;34;20910;-86
2020/12/29 03:35:17;;;;;;;8.07;1.98;;;12.70;99.90;;;;;;4127034;34;20104;-86
2020/12/29 03:37:45;;;;;;;20.05;3.12;;;12.90;99.90;;;;;;4121919;34;20106;-88
2020/12/29 03:40:13;;;;;;;14.75;2.45;;;13.00;99.90;;;;;;4128451;34;20512;-86
2020/12/29 03:42:41;;;;;;;14.27;1.55;;;13.10;99.90;;;;;;4131556;34;20038;-85
2020/12/29 03:45:09;;;;;;;13.90;2.25;;;13.20;99.90;;;;;;4119143;34;20127;-86
2020/12/29 03:47:37;;;;;;;16.08;2.12;;;13.30;99.90;;;;;;4138827;34;20094;-86
2020/12/29 03:50:05;;;;;;;7.65;2.30;;;13.40;99.90;;;;;;4136086;34;20072;-85
2020/12/29 03:52:33;;;;;;;8.20;1.90;;;13.40;99.90;;;;;;4133155;34;20762;-86
2020/12/29 03:55:01;;;;;;;10.43;2.33;;;13.50;99.90;;;;;;4118957;34;20720;-85
2020/12/29 03:57:29;;;;;;;14.15;2.40;;;13.50;99.90;;;;;;4123692;34;20171;-88
2020/12/29 03:59:57;;;;;;;9.63;1.98;;;13.50;99.90;;;;;;4128679;34;20132;-87
2020/12/29 04:02:25;;;;;;;11.75;2.00;;;13.50;99.90;;;;;;4131351;34;20133;-89
2020/12/29 04:04:53;;;;;;;17.73;2.10;;;13.50;99.90;;;;;;4128549;34;20025;-87
2020/12/29 04:07:21;;;;;;;10.57;2.15;;;13.40;99.90;;;;;;4136865;34;20405;-86
2020/12/29 04:09:49;;;;;;;8.80;1.83;;;13.30;99.90;;;;;;4123098;34;20072;-87
2020/12/29 04:12:17;;;;;;;7.75;1.90;;;13.40;99.90;;;;;;4128094;34;20104;-88
2020/12/29 04:14:44;;;;;;;9.82;2.00;;;13.30;99.90;;;;;;4107689;34;20498;-87
2020/12/29 04:17:12;;;;;;;12.02;2.62;;;13.30;99.90;;;;;;4130315;34;20161;-87
2020/12/29 04:19:40;;;;;;;12.02;3.37;;;13.30;99.90;;;;;;4125903;34;20110;-85
2020/12/29 04:22:08;;;;;;;11.15;2.28;;;13.30;99.90;;;;;;4126012;34;20202;-88
2020/12/29 04:24:36;;;;;;;10.43;2.17;;;13.30;99.90;;;;;;4129086;34;20096;-88
2020/12/29 04:27:04;;;;;;;7.45;2.47;;;13.20;99.90;;;;;;4124974;34;20116;-86
2020/12/29 04:29:32;;;;;;;20.10;2.85;;;13.20;99.90;;;;;;4142611;34;20096;-86
2020/12/29 04:31:59;;;;;;;13.35;2.17;;;13.20;99.90;;;;;;4142794;34;20144;-88
2020/12/29 04:34:28;;;;;;;10.45;1.92;;;13.30;99.90;;;;;;4145426;34;20130;-86
2020/12/29 04:36:57;;;;;;;3.45;1.65;;;13.30;99.90;;;;;;4142995;34;20452;-86
2020/12/29 04:39:26;;;;;;;8.32;2.50;;;13.30;99.90;;;;;;4130083;34;20068;-88
2020/12/29 04:42:01;;;;;;;13.05;2.47;;;13.30;99.90;;;;;;4140604;34;20115;-88
2020/12/29 04:44:29;;;;;;;5.37;1.70;;;13.30;99.90;;;;;;4142191;34;20104;-89
2020/12/29 04:46:58;;;;;;;13.20;2.95;;;13.30;99.90;;;;;;4132616;34;20068;-87
2020/12/29 04:49:27;;;;;;;11.85;2.00;;;13.30;99.90;;;;;;4130984;34;20082;-88
2020/12/29 04:51:57;;;;;;;5.85;1.87;;;13.30;99.90;;;;;;4143024;34;20141;-90
2020/12/29 04:54:26;;;;;;;7.87;2.03;;;13.20;99.90;;;;;;4129451;34;20419;-88
2020/12/29 04:56:56;;;;;;;5.00;1.27;;;13.20;99.90;;;;;;4138109;34;20143;-86
2020/12/29 04:59:23;;;;;;;13.88;2.40;;;13.20;99.90;;;;;;4130666;34;20161;-88
2020/12/29 05:01:52;;;;;;;8.52;1.80;;;13.20;99.90;;;;;;4139818;34;20803;-88
2020/12/29 05:04:21;;;;;;;16.30;2.08;;;13.20;99.90;;;;;;4138936;34;20081;-88
2020/12/29 05:06:50;;;;;;;13.25;2.25;;;13.20;99.90;;;;;;4130452;34;20115;-88
2020/12/29 05:09:20;;;;;;;8.90;2.92;;;13.20;99.90;;;;;;4131728;34;20095;-85
2020/12/29 05:11:48;;;;;;;20.70;2.87;;;13.20;99.90;;;;;;4141268;34;20158;-90
2020/12/29 05:14:15;;;;;;;13.13;2.72;;;13.20;99.90;;;;;;4128186;34;20068;-88
2020/12/29 05:16:44;;;;;;;5.25;1.80;;;13.20;99.90;;;;;;4127827;34;20570;-89
2020/12/29 05:19:14;;;;;;;11.38;2.53;;;13.20;99.90;;;;;;4143215;34;20435;-86
2020/12/29 05:21:43;;;;;;;15.82;2.12;;;13.30;99.90;;;;;;4131064;34;20122;-87
2020/12/29 05:24:19;;;;;;;14.70;2.20;;;13.30;99.90;;;;;;4132012;34;20117;-89
2020/12/29 05:26:59;;;;;;;12.70;1.90;;;13.30;99.90;;;;;;4126248;34;20131;-87
2020/12/29 05:29:30;;;;;;;9.73;2.35;;;13.30;99.90;;;;;;4124766;34;20068;-88
2020/12/29 05:31:58;;;;;;;5.72;2.35;;;13.30;99.90;;;;;;4143036;34;20191;-89
2020/12/29 05:34:30;;;;;;;7.35;1.83;;;13.20;99.90;;;;;;4131761;34;20080;-86
2020/12/29 05:36:59;;;;;;;15.23;2.53;;;13.10;99.90;;;;;;4146618;34;20187;-88
2020/12/29 05:39:30;;;;;;;12.40;2.42;;;13.10;99.90;;;;;;4135440;34;20107;-89
2020/12/29 05:42:03;;;;;;;12.25;2.37;;;13.10;99.90;;;;;;4143698;34;20144;-86
2020/12/29 05:44:35;;;;;;;8.55;2.30;;;13.00;99.90;;;;;;4146577;34;20553;-89
2020/12/29 05:47:04;;;;;;;5.43;1.98;;;12.90;99.90;;;;;;4143210;34;20271;-90
2020/12/29 05:49:32;;;;;;;9.63;2.62;;;12.80;99.90;;;;;;4129698;34;20061;-86
2020/12/29 05:52:01;;;;;;;11.90;2.50;;;12.60;99.90;;;;;;4142618;34;20065;-89
2020/12/29 05:54:29;;;;;;;28.00;2.83;;;12.60;99.90;;;;;;4131453;34;20190;-86
2020/12/29 05:56:57;;;;;;;14.30;1.90;;;12.60;99.90;;;;;;4151216;34;20119;-88
2020/12/29 05:59:27;;;;;;;14.23;2.12;;;12.50;99.90;;;;;;4136214;34;20087;-88
2020/12/29 06:01:56;;;;;;;10.68;2.37;;;12.50;99.90;;;;;;4147488;34;20068;-86
2020/12/29 06:04:25;;;;;;;20.52;3.10;;;12.50;99.90;;;;;;4146817;34;20111;-85
2020/12/29 06:07:04;;;;;;;11.98;2.72;;;12.40;99.90;;;;;;4130858;34;20086;-86
2020/12/29 06:09:35;;;;;;;10.55;2.72;;;12.40;99.90;;;;;;4135242;34;20068;-87
2020/12/29 06:12:15;;;;;;;17.45;2.40;;;12.40;99.90;;;;;;4143840;34;20587;-88
2020/12/29 06:14:47;;;;;;;5.80;1.55;;;12.40;99.90;;;;;;4126746;34;20068;-88
2020/12/29 06:17:17;;;;;;;11.75;2.60;;;12.40;99.90;;;;;;4151455;34;20112;-86
2020/12/29 06:20:07;;;;;;;12.10;2.83;;;12.40;99.90;;;;;;4138589;34;20140;-88
2020/12/29 06:22:38;;;;;;;14.18;2.90;;;12.60;99.90;;;;;;4139531;34;20064;-88
2020/12/29 06:25:10;;;;;;;13.62;2.42;;;12.70;99.90;;;;;;4144196;34;20060;-86
2020/12/29 06:27:47;;;;;;;5.55;2.00;;;12.90;99.90;;;;;;4141352;34;20139;-87
2020/12/29 06:30:18;;;;;;;12.40;2.92;;;12.90;99.90;;;;;;4143616;34;20421;-86
2020/12/29 06:32:49;;;;;;;11.70;2.17;;;13.10;99.90;;;;;;4138912;34;20947;-89
2020/12/29 06:35:18;;;;;;;7.28;2.50;;;13.20;99.90;;;;;;4144917;34;20095;-87
2020/12/29 06:38:16;;;;;;;17.20;2.62;;;13.30;99.90;;;;;;4148985;34;20127;-85
2020/12/29 06:40:46;;;;;;;14.20;2.75;;;13.30;99.90;;;;;;4131246;34;20119;-88
2020/12/29 06:43:32;;;;;;;7.57;2.17;;;13.30;99.90;;;;;;4138706;34;20681;-86
2020/12/29 06:46:20;;;;;;;16.02;2.58;;;13.40;99.90;;;;;;4128570;34;20441;-85
2020/12/29 06:48:48;;;;;;;8.98;1.60;;;13.50;99.90;;;;;;4130484;34;20048;-88
2020/12/29 06:51:16;;;;;;;11.12;1.73;;;13.40;99.90;;;;;;4117773;34;20072;-88
2020/12/29 06:53:44;;;;;;;11.32;2.00;;;13.50;99.90;;;;;;4119473;34;20131;-86
2020/12/29 06:56:14;;;;;;;13.13;1.77;;;13.40;99.90;;;;;;4135962;34;20114;-86
2020/12/29 06:58:42;;;;;;;7.80;2.15;;;13.40;99.90;;;;;;4148650;34;20060;-87
2020/12/29 07:01:38;;;;;;;10.68;2.03;;;13.40;99.90;;;;;;4139188;34;20175;-85
2020/12/29 07:04:07;;;;;;;7.20;2.12;;;13.30;99.90;;;;;;4121056;34;20090;-88
2020/12/29 07:06:36;;;;;;;6.57;1.35;;;13.30;99.90;;;;;;4131453;34;20094;-88
2020/12/29 07:09:19;;;;;;;11.95;1.90;;;13.30;99.90;;;;;;4137109;34;20569;-89
2020/12/29 07:12:07;;;;;;;13.13;1.92;;;13.30;99.90;;;;;;4116738;34;20135;-85
2020/12/29 07:14:36;;;;;;;7.97;1.40;;;13.20;99.90;;;;;;4129426;34;20107;-86
2020/12/29 07:17:06;;;;;;;5.95;1.60;;;13.20;99.90;;;;;;4141954;34;20100;-89
2020/12/29 07:19:40;;;;;;;5.60;1.90;;;13.20;99.90;;;;;;4133462;34;20196;-86
2020/12/29 07:22:17;;;;;;;12.30;1.65;;;13.20;99.90;;;;;;4121551;34;20400;-87
2020/12/29 07:24:45;;;;;;;7.70;1.73;;;13.10;99.90;;;;;;4130401;34;20995;-87
2020/12/29 07:27:20;;;;;;;21.27;2.37;;;13.10;99.90;;;;;;4139676;34;20114;-86
2020/12/29 07:30:01;;;;;;;12.68;2.78;;;13.10;99.90;;;;;;4148619;34;20060;-88
2020/12/29 07:32:29;;;;;;;11.23;1.95;;;13.10;99.90;;;;;;4125542;34;20068;-88
2020/12/29 07:34:58;;;;;;;9.27;1.77;;;13.10;99.90;;;;;;4128155;34;20117;-87
2020/12/29 07:37:28;;;;;;;12.07;1.83;;;13.10;99.90;;;;;;4131154;34;20111;-88
2020/12/29 07:39:56;;;;;;;11.20;1.80;;;13.10;99.90;;;;;;4141048;34;20068;-87
2020/12/29 07:42:25;;;;;;;13.90;2.17;;;13.10;99.90;;;;;;4119812;34;20088;-85
2020/12/29 07:44:56;;;;;;;8.05;2.17;;;13.00;99.90;;;;;;4141701;34;20177;-88
2020/12/29 07:47:24;;;;;;;17.62;2.83;;;13.00;99.90;;;;;;4127929;34;20131;-87
2020/12/29 07:49:51;;;;;;;7.18;2.37;;;12.90;99.90;;;;;;4128619;34;20136;-89
2020/12/29 07:52:23;;;;;;;26.42;2.70;;;12.70;99.90;;;;;;4146798;34;20114;-89
2020/12/29 07:55:09;;;;;;;13.68;2.53;;;12.60;99.90;;;;;;4132659;34;20068;-86
2020/12/29 07:57:40;;;;;;;7.82;2.62;;;12.60;99.90;;;;;;4145167;34;20122;-88
2020/12/29 08:00:13;;;;;;;11.73;1.95;;;12.50;99.90;;;;;;4130156;34;20221;-87
2020/12/29 08:02:50;;;;;;;18.27;2.70;;;12.50;99.90;;;;;;4141409;34;20115;-90
2020/12/29 08:05:25;;;;;;;6.97;2.15;;;12.70;99.90;;;;;;4132055;34;20122;-88
2020/12/29 08:07:56;;;;;;;;;;;13.00;99.90;;;;;;4148799;34;20095;-86
2020/12/29 08:10:26;;;;;;;14.18;1.98;;;13.20;99.90;;;;;;4130211;34;20002;-89
2020/12/29 08:12:56;;;;;;;10.48;3.47;;;13.30;99.90;;;;;;4128571;34;20658;-85
2020/12/29 08:15:34;;;;;;;13.70;1.92;;;13.50;99.90;;;;;;4142969;34;20135;-89
2020/12/29 08:18:18;;;;;;;9.77;2.15;;;13.60;99.90;;;;;;4143161;34;20098;-89
2020/12/29 08:20:46;;;;;;;11.00;2.58;;;13.80;99.90;;;;;;4130323;34;20104;-88
2020/12/29 08:23:16;;;;;;;18.85;3.08;;;14.10;99.90;;;;;;4131500;34;20186;-89
2020/12/29 08:26:03;;;;;;;14.57;2.50;;;14.30;99.90;;;;;;4141022;34;20168;-87
2020/12/29 08:28:35;;;;;;;16.83;2.42;;;14.50;99.90;;;;;;4139677;34;20808;-86
2020/12/29 08:31:04;;;;;;;12.85;4.20;;;14.80;99.90;;;;;;4126251;34;20119;-86
2020/12/29 08:33:33;;;;;;;14.43;7.85;;;15.10;99.90;;;;;;4138560;34;20095;-86
2020/12/29 08:36:03;;;;;;;23.70;4.78;;;15.30;99.90;;;;;;4127961;34;20072;-89
2020/12/29 08:38:47;;;;;;;13.35;7.60;;;15.50;99.90;;;;;;4131479;34;20072;-89
2020/12/29 08:41:22;;;;;;;21.30;7.65;;;16.10;99.90;;;;;;4133843;34;20064;-89
2020/12/29 08:43:50;;;;;;;;;;;16.10;99.90;;;;;;4132095;34;20545;-87
2020/12/29 08:46:24;;;;;;;13.93;9.52;;;16.10;99.90;;;;;;4114355;34;20030;-86
2020/12/29 08:48:54;;;;;;;;;;;16.40;99.90;;;;;;4130459;34;20076;-86
2020/12/29 08:51:31;;;;;;;13.77;3.15;;;17.20;99.90;;;;;;4127790;34;19975;-87
2020/12/29 08:54:17;;;;;;;20.77;3.87;;;18.60;99.90;;;;;;4143867;34;20060;-90
2020/12/29 08:56:46;;;;;;;12.25;3.58;;;20.20;99.50;;;;;;4132966;34;20144;-89
2020/12/29 08:59:15;;;;;;;16.00;2.80;;;;;;;;;;4159237;34;20052;-88
2020/12/29 09:01:48;;;;;;;10.07;3.15;;;22.00;99.90;;;;;;4145030;34;20112;-88
2020/12/29 09:04:30;;;;;;;10.77;2.70;;;22.90;92.10;;;;;;4152429;34;20078;-91
2020/12/29 09:07:15;;;;;;;12.15;3.35;;;23.20;89.60;;;;;;4146138;34;20462;-90
2020/12/29 09:09:53;;;;;;;10.77;3.30;;;;;;;;;;4137943;34;20060;-90
2020/12/29 09:12:22;;;;;;;8.30;2.87;;;25.20;83.40;;;;;;4149649;34;20114;-89
2020/12/29 09:14:54;;;;;;;8.15;2.90;;;25.40;99.90;;;;;;4132137;34;20072;-87
2020/12/29 09:17:33;;;;;;;16.00;3.22;;;24.60;77.80;;;;;;4134882;34;20086;-90
2020/12/29 09:20:08;;;;;;;12.20;3.10;;;24.10;77.40;;;;;;4144678;34;20420;-89
2020/12/29 09:23:03;;;;;;;15.30;3.58;;;23.50;78.30;;;;;;4142161;34;20092;-87
2020/12/29 09:25:36;;;;;;;8.60;3.50;;;23.80;78.00;;;;;;4158488;34;20179;-86
2020/12/29 09:28:14;;;;;;;7.93;3.57;;;24.80;78.80;;;;;;4142304;34;20092;-89
2020/12/29 09:30:45;;;;;;;5.50;3.10;;;25.40;74.50;;;;;;4153131;34;20463;-88
2020/12/29 09:33:20;;;;;;;10.13;3.55;;;25.20;74.20;;;;;;4134639;34;20069;-87
2020/12/29 09:35:49;;;;;;;6.05;2.30;;;26.00;72.60;;;;;;4125068;34;20142;-88
2020/12/29 09:38:19;;;;;;;11.55;3.42;;;25.90;71.30;;;;;;4135516;34;20616;-90
2020/12/29 09:41:03;;;;;;;12.93;3.03;;;24.90;72.10;;;;;;4155579;34;20111;-88
2020/12/29 09:43:32;;;;;;;13.40;3.73;;;24.50;73.40;;;;;;4144328;34;20064;-88
2020/12/29 09:46:00;;;;;;;5.22;2.78;;;25.10;71.20;;;;;;4143124;34;20067;-86
2020/12/29 09:48:28;;;;;;;9.05;3.75;;;25.80;69.50;;;;;;4143612;34;20099;-90
2020/12/29 09:50:56;;;;;;;12.43;4.40;;;25.20;68.30;;;;;;4132490;34;20068;-89
2020/12/29 09:53:25;;;;;;;9.82;3.28;;;26.40;67.40;;;;;;4137620;34;20126;-90
2020/12/29 09:55:54;;;;;;;5.87;2.00;;;26.80;66.20;;;;;;4154584;34;20127;-89
2020/12/29 09:58:22;;;;;;;6.68;3.03;;;26.30;66.30;;;;;;4140381;34;20163;-87
2020/12/29 10:00:51;;;;;;;7.00;3.10;;;26.20;64.50;;;;;;4141976;34;20060;-91
2020/12/29 10:03:19;;;;;;;14.25;3.80;;;25.80;64.40;;;;;;4148359;34;20072;-89
2020/12/29 10:05:49;;;;;;;10.82;3.95;;;25.90;63.60;;;;;;4131875;34;20120;-92
2020/12/29 10:08:17;;;;;;;13.27;3.80;;;26.20;62.70;;;;;;4145997;34;20064;-87
2020/12/29 10:10:45;;;;;;;7.50;3.47;;;26.40;61.80;;;;;;4155522;34;20512;-88
2020/12/29 10:13:13;;;;;;;11.48;3.53;;;26.80;60.90;;;;;;4156838;34;20063;-87
2020/12/29 10:15:41;;;;;;;17.00;3.65;;;26.20;61.10;;;;;;4143143;34;20056;-87
2020/12/29 10:18:09;;;;;;;9.88;4.00;;;26.20;61.00;;;;;;4142060;34;20104;-88
2020/12/29 10:20:37;;;;;;;8.55;3.70;;;26.40;60.50;;;;;;4140411;34;20547;-88
2020/12/29 10:23:04;;;;;;;11.02;3.62;;;26.50;60.20;;;;;;4154025;34;20095;-87
2020/12/29 10:25:33;;;;;;;14.35;4.47;;;26.40;59.80;;;;;;4156371;34;20470;-88
2020/12/29 10:28:01;;;;;;;9.68;4.37;;;27.20;57.10;;;;;;4156449;34;20098;-86
2020/12/29 10:30:29;;;;;;;12.02;3.72;;;26.60;57.40;;;;;;4137582;34;20083;-87
2020/12/29 10:32:57;;;;;;;7.68;3.72;;;26.20;56.10;;;;;;4137541;34;20549;-88
2020/12/29 10:35:25;;;;;;;18.15;4.00;;;26.60;56.70;;;;;;4125158;34;20108;-89
2020/12/29 10:37:54;;;;;;;12.02;3.97;;;26.80;55.00;;;;;;4140365;34;20064;-89
2020/12/29 10:40:22;;;;;;;10.52;3.95;;;26.90;55.70;;;;;;4132009;34;20080;-88
2020/12/29 10:42:50;;;;;;;19.50;4.22;;;26.70;56.90;;;;;;4137008;34;20233;-87
2020/12/29 10:45:18;;;;;;;11.12;3.40;;;26.70;55.60;;;;;;4136177;34;20581;-91
2020/12/29 10:47:46;;;;;;;12.55;3.55;;;27.60;55.00;;;;;;4135184;34;20096;-90
2020/12/29 10:50:14;;;;;;;9.25;3.15;;;27.10;54.90;;;;;;4129162;34;20140;-88
2020/12/29 10:52:41;;;;;;;12.82;3.75;;;27.40;55.20;;;;;;4137096;34;20610;-90
2020/12/29 10:55:10;;;;;;;7.78;3.20;;;28.00;53.30;;;;;;4144943;34;20095;-90
2020/12/29 10:57:37;;;;;;;7.55;3.67;;;27.90;52.60;;;;;;4133134;34;20436;-90
2020/12/29 11:00:05;;;;;;;9.75;2.30;;;28.40;52.80;;;;;;4157329;34;20088;-88
2020/12/29 11:02:34;;;;;;;8.40;3.72;;;26.10;53.80;;;;;;4151233;34;20175;-87
2020/12/29 11:05:02;;;;;;;6.82;3.35;;;26.00;57.20;;;;;;4128477;34;20064;-88
2020/12/29 11:07:30;;;;;;;9.75;3.15;;;24.80;57.80;;;;;;4134056;34;20120;-88
2020/12/29 11:09:58;;;;;;;21.52;4.20;;;25.20;59.10;;;;;;4123817;34;20152;-90
2020/12/29 11:12:26;;;;;;;16.02;3.90;;;26.90;56.40;;;;;;4152423;34;20091;-89
2020/12/29 11:14:54;;;;;;;9.35;3.53;;;27.40;53.90;;;;;;4137263;34;20140;-90
2020/12/29 11:17:22;;;;;;;14.45;2.75;;;27.40;54.60;;;;;;4148422;34;20259;-89
2020/12/29 11:19:51;;;;;;;14.05;3.05;;;25.10;56.20;;;;;;4154041;34;20100;-89
2020/12/29 11:22:19;;;;;;;11.02;3.55;;;25.60;57.50;;;;;;4156176;34;20630;-88
2020/12/29 11:24:47;;;;;;;9.27;2.30;;;26.50;56.10;;;;;;4125912;34;20126;-86
2020/12/29 11:27:15;;;;;;;9.18;1.85;;;26.00;55.60;;;;;;4148292;34;20104;-87
2020/12/29 11:29:43;;;;;;;9.88;2.50;;;24.60;58.60;;;;;;4141660;34;20096;-89
2020/12/29 11:32:11;;;;;;;23.23;4.35;;;24.50;60.70;;;;;;4151392;34;20104;-89
2020/12/29 11:34:39;;;;;;;13.65;2.03;;;25.90;60.40;;;;;;4145543;34;20171;-91
2020/12/29 11:37:07;;;;;;;8.07;1.75;;;24.60;60.80;;;;;;4135654;34;20083;-88
2020/12/29 11:39:35;;;;;;;9.10;2.22;;;22.70;65.60;;;;;;4143285;34;20112;-88
2020/12/29 11:42:05;;;;;;;13.43;2.72;;;22.00;69.60;;;;;;4140763;34;20114;-88
2020/12/29 11:44:33;;;;;;;9.63;2.20;;;22.20;68.60;;;;;;4135208;34;20436;-90
2020/12/29 11:47:02;;;;;;;13.05;4.30;;;22.10;69.00;;;;;;4125731;34;20124;-87
2020/12/29 11:49:31;;;;;;;14.00;2.65;;;23.00;67.30;;;;;;4133724;34;20606;-89
2020/12/29 11:51:58;;;;;;;12.15;2.80;;;23.40;66.30;;;;;;4141627;34;20139;-89
2020/12/29 11:54:27;;;;;;;12.05;3.35;;;23.30;66.60;;;;;;4139316;34;20116;-89
2020/12/29 11:56:54;;;;;;;17.65;2.70;;;25.90;61.00;;;;;;4145863;34;20072;-93
2020/12/29 11:59:22;;;;;;;13.48;2.33;;;24.80;59.20;;;;;;4141751;34;20960;-88
2020/12/29 12:01:50;;;;;;;8.93;2.33;;;22.80;63.60;;;;;;4135992;34;20423;-87
2020/12/29 12:04:19;;;;;;;9.90;2.25;;;22.40;65.20;;;;;;4132527;34;20111;-89
2020/12/29 12:06:47;;;;;;;14.07;2.85;;;22.40;67.20;;;;;;4147867;34;20229;-89
2020/12/29 12:09:15;;;;;;;10.90;2.75;;;23.40;64.20;;;;;;4140583;34;20139;-86
2020/12/29 12:11:44;;;;;;;12.80;3.97;;;22.60;65.30;;;;;;4138742;34;20075;-87
2020/12/29 12:14:11;;;;;;;12.95;3.20;;;24.40;64.30;;;;;;4137166;34;20064;-89
2020/12/29 12:16:40;;;;;;;14.75;3.22;;;25.50;59.70;;;;;;4141907;34;20115;-86
2020/12/29 12:19:08;;;;;;;18.50;2.42;;;26.80;55.60;;;;;;4148854;34;20056;-89
2020/12/29 12:21:36;;;;;;;11.20;2.35;;;26.90;55.10;;;;;;4149692;34;20713;-87
2020/12/29 12:24:04;;;;;;;11.27;2.70;;;26.30;55.00;;;;;;4129522;34;20076;-86
2020/12/29 12:26:32;;;;;;;9.20;2.92;;;25.30;58.20;;;;;;4128856;34;20084;-90
2020/12/29 12:29:00;;;;;;;12.82;2.53;;;26.20;56.70;;;;;;4124729;34;20076;-86
2020/12/29 12:31:28;;;;;;;9.30;3.00;;;26.00;55.40;;;;;;4126413;34;20499;-87
2020/12/29 12:33:56;;;;;;;8.95;2.53;;;26.70;54.80;;;;;;4118095;34;21183;-87
2020/12/29 12:36:24;;;;;;;15.57;2.90;;;26.40;54.40;;;;;;4119423;34;20069;-90
2020/12/29 12:38:52;;;;;;;14.25;2.80;;;26.40;54.00;;;;;;4125704;34;20069;-86
2020/12/29 12:41:20;;;;;;;10.10;2.47;;;25.90;55.80;;;;;;4110209;34;20535;-87
2020/12/29 12:43:48;;;;;;;14.48;2.85;;;24.70;57.60;;;;;;4115737;34;20099;-85
2020/12/29 12:46:16;;;;;;;10.32;2.58;;;23.80;59.10;;;;;;4121134;34;20088;-88
2020/12/29 12:48:44;;;;;;;12.02;2.30;;;23.40;59.90;;;;;;4109932;34;20881;-87
2020/12/29 12:51:13;;;;;;;8.48;2.37;;;23.20;61.70;;;;;;4120741;34;20120;-89
2020/12/29 12:53:42;;;;;;;9.50;2.42;;;23.40;60.40;;;;;;4129059;34;20134;-87
2020/12/29 12:56:14;;;;;;;11.27;1.75;;;23.20;61.30;;;;;;4106179;34;20136;-90
2020/12/29 12:58:43;;;;;;;11.98;2.05;;;22.40;62.30;;;;;;4116989;34;20061;-89
2020/12/29 13:01:17;;;;;;;11.93;2.15;;;22.80;62.70;;;;;;4116600;34;20565;-87
2020/12/29 13:03:45;;;;;;;8.00;2.10;;;22.10;63.50;;;;;;4121092;34;20060;-89